createdAt,value
2018-09-04T00:00:16.709Z,96.8
2018-09-04T00:01:16.713Z,96.8
2018-09-04T00:02:16.988Z,96.8
2018-09-04T00:03:17.263Z,96.8
2018-09-04T00:04:16.526Z,96.8
2018-09-04T00:05:16.837Z,96.8
2018-09-04T00:06:17.105Z,96.8
2018-09-04T00:07:16.370Z,96.8
2018-09-04T00:08:16.626Z,96.8
2018-09-04T00:09:16.904Z,96.7
2018-09-04T00:10:17.181Z,96.8
2018-09-04T00:11:17.230Z,96.8
2018-09-04T00:12:16.502Z,96.8
2018-09-04T00:13:16.776Z,96.8
2018-09-04T00:14:17.054Z,96.8
2018-09-04T00:15:16.324Z,96.7
2018-09-04T00:16:16.609Z,96.7
2018-09-04T00:17:16.876Z,96.6
2018-09-04T00:18:17.150Z,96.6
2018-09-04T00:19:16.422Z,96.6
2018-09-04T00:20:16.696Z,96.6
2018-09-04T00:21:16.742Z,96.6
2018-09-04T00:22:17.016Z,96.5
2018-09-04T00:23:16.280Z,96.6
2018-09-04T00:24:16.554Z,96.5
2018-09-04T00:25:16.824Z,96.6
2018-09-04T00:26:17.094Z,96.6
2018-09-04T00:27:16.376Z,96.7
2018-09-04T00:28:16.662Z,96.7
2018-09-04T00:29:16.933Z,96.7
2018-09-04T00:30:17.224Z,96.7
2018-09-04T00:31:17.240Z,96.7
2018-09-04T00:32:16.511Z,96.7
2018-09-04T00:33:16.797Z,96.6
2018-09-04T00:34:17.117Z,96.6
2018-09-04T00:35:16.452Z,96.6
2018-09-04T00:36:16.731Z,96.7
2018-09-04T00:37:16.999Z,96.6
2018-09-04T00:38:16.291Z,96.7
2018-09-04T00:39:16.561Z,96.7
2018-09-04T00:40:16.844Z,96.7
2018-09-04T00:41:16.863Z,96.7
2018-09-04T00:42:17.140Z,96.5
2018-09-04T00:43:16.411Z,96.5
2018-09-04T00:44:16.675Z,96.5
2018-09-04T00:45:16.951Z,96.4
2018-09-04T00:46:17.213Z,96.2
2018-09-04T00:47:16.483Z,96.2
2018-09-04T00:48:16.749Z,96.3
2018-09-04T00:49:17.021Z,96.5
2018-09-04T00:50:16.304Z,96.5
2018-09-04T00:51:16.334Z,96.5
2018-09-04T00:52:16.600Z,96.5
2018-09-04T00:53:16.876Z,96.5
2018-09-04T00:54:17.173Z,96.5
2018-09-04T00:55:16.441Z,96.5
2018-09-04T00:56:16.708Z,96.5
2018-09-04T00:57:16.975Z,96.5
2018-09-04T00:58:17.239Z,96.5
2018-09-04T00:59:16.514Z,96.5
2018-09-04T01:00:16.796Z,96.7
2018-09-04T01:01:16.841Z,96.7
2018-09-04T01:02:17.109Z,96.5
2018-09-04T01:03:16.385Z,96.6
2018-09-04T01:04:16.657Z,96.6
2018-09-04T01:05:16.927Z,96.5
2018-09-04T01:06:17.186Z,96.3
2018-09-04T01:07:16.452Z,96.3
2018-09-04T01:08:16.718Z,96.4
2018-09-04T01:09:16.984Z,96.5
2018-09-04T01:10:17.259Z,96.5
2018-09-04T01:11:16.676Z,96.5
2018-09-04T01:12:16.951Z,96.6
2018-09-04T01:13:17.225Z,96.6
2018-09-04T01:14:16.497Z,96.5
2018-09-04T01:15:16.769Z,96.5
2018-09-04T01:16:17.038Z,96.5
2018-09-04T01:17:16.309Z,96.6
2018-09-04T01:18:16.577Z,96.7
2018-09-04T01:19:16.853Z,96.7
2018-09-04T01:20:17.140Z,96.7
2018-09-04T01:21:17.171Z,96.7
2018-09-04T01:22:16.445Z,96.8
2018-09-04T01:23:16.705Z,96.7
2018-09-04T01:24:16.974Z,96.7
2018-09-04T01:25:17.237Z,96.7
2018-09-04T01:26:16.515Z,96.7
2018-09-04T01:27:16.792Z,96.7
2018-09-04T01:28:17.061Z,96.8
2018-09-04T01:29:16.334Z,96.8
2018-09-04T01:30:16.603Z,96.8
2018-09-04T01:31:16.662Z,96.8
2018-09-04T01:32:16.934Z,96.8
2018-09-04T01:33:17.192Z,96.9
2018-09-04T01:34:16.457Z,96.8
2018-09-04T01:35:16.724Z,96.8
2018-09-04T01:36:17.005Z,96.8
2018-09-04T01:37:16.272Z,96.9
2018-09-04T01:38:16.541Z,96.9
2018-09-04T01:39:16.812Z,96.9
2018-09-04T01:40:17.088Z,96.9
2018-09-04T01:41:17.131Z,96.9
2018-09-04T01:42:16.394Z,97.0
2018-09-04T01:43:16.663Z,96.9
2018-09-04T01:44:16.940Z,96.9
2018-09-04T01:45:17.205Z,96.9
2018-09-04T01:46:16.479Z,96.9
2018-09-04T01:47:16.747Z,96.8
2018-09-04T01:48:17.029Z,96.9
2018-09-04T01:49:16.296Z,96.9
2018-09-04T01:50:16.582Z,96.9
2018-09-04T01:51:16.631Z,97.0
2018-09-04T01:52:16.909Z,96.9
2018-09-04T01:53:17.187Z,96.9
2018-09-04T01:54:16.456Z,97.0
2018-09-04T01:55:16.724Z,97.0
2018-09-04T01:56:16.989Z,97.0
2018-09-04T01:57:16.261Z,97.0
2018-09-04T01:58:16.534Z,97.0
2018-09-04T01:59:16.802Z,97.0
2018-09-04T02:00:17.072Z,97.0
2018-09-04T02:01:17.138Z,97.0
2018-09-04T02:02:16.398Z,97.0
2018-09-04T02:03:16.676Z,97.0
2018-09-04T02:04:16.965Z,97.0
2018-09-04T02:05:17.249Z,97.0
2018-09-04T02:06:16.719Z,97.0
2018-09-04T02:07:16.986Z,97.0
2018-09-04T02:08:17.705Z,97.0
2018-09-04T02:09:16.973Z,97.0
2018-09-04T02:10:17.246Z,97.0
2018-09-04T02:11:16.296Z,97.0
2018-09-04T02:12:16.562Z,97.0
2018-09-04T02:13:16.831Z,97.0
2018-09-04T02:14:17.264Z,97.0
2018-09-04T02:15:16.535Z,97.1
2018-09-04T02:16:16.819Z,97.1
2018-09-04T02:17:17.106Z,97.0
2018-09-04T02:18:16.375Z,97.0
2018-09-04T02:19:16.639Z,97.0
2018-09-04T02:20:16.919Z,97.0
2018-09-04T02:21:16.959Z,97.0
2018-09-04T02:22:17.238Z,96.9
2018-09-04T02:23:16.513Z,96.9
2018-09-04T02:24:16.795Z,96.9
2018-09-04T02:25:17.071Z,96.9
2018-09-04T02:26:16.338Z,96.9
2018-09-04T02:27:16.606Z,96.9
2018-09-04T02:28:16.871Z,96.9
2018-09-04T02:29:17.153Z,96.9
2018-09-04T02:30:16.470Z,96.8
2018-09-04T02:31:16.490Z,96.9
2018-09-04T02:32:16.768Z,96.9
2018-09-04T02:33:17.031Z,96.9
2018-09-04T02:34:16.301Z,96.9
2018-09-04T02:35:16.581Z,96.9
2018-09-04T02:36:16.882Z,96.9
2018-09-04T02:37:17.146Z,96.9
2018-09-04T02:38:16.410Z,96.9
2018-09-04T02:39:16.688Z,96.8
2018-09-04T02:40:17.286Z,96.8
2018-09-04T02:41:17.033Z,96.8
2018-09-04T02:42:16.311Z,96.8
2018-09-04T02:43:16.577Z,96.8
2018-09-04T02:44:16.844Z,96.8
2018-09-04T02:45:16.299Z,96.9
2018-09-04T02:46:16.574Z,96.8
2018-09-04T02:47:16.853Z,96.8
2018-09-04T02:48:17.116Z,96.8
2018-09-04T02:49:16.386Z,96.9
2018-09-04T02:50:16.659Z,96.9
2018-09-04T02:51:16.700Z,96.9
2018-09-04T02:52:16.967Z,96.9
2018-09-04T02:53:17.239Z,96.9
2018-09-04T02:54:16.518Z,96.9
2018-09-04T02:55:16.806Z,96.9
2018-09-04T02:56:17.083Z,96.8
2018-09-04T02:57:16.348Z,96.8
2018-09-04T02:58:16.616Z,96.8
2018-09-04T02:59:16.893Z,96.8
2018-09-04T03:00:17.183Z,96.8
2018-09-04T03:01:17.236Z,96.8
2018-09-04T03:02:16.509Z,96.9
2018-09-04T03:03:16.769Z,96.9
2018-09-04T03:04:17.044Z,96.9
2018-09-04T03:05:16.315Z,97.0
2018-09-04T03:06:16.606Z,97.0
2018-09-04T03:07:16.873Z,96.9
2018-09-04T03:08:17.140Z,96.9
2018-09-04T03:09:16.413Z,96.9
2018-09-04T03:10:16.691Z,96.9
2018-09-04T03:11:16.742Z,97.0
2018-09-04T03:12:17.006Z,96.9
2018-09-04T03:13:16.302Z,97.0
2018-09-04T03:14:16.577Z,97.0
2018-09-04T03:15:16.855Z,97.0
2018-09-04T03:16:17.624Z,97.0
2018-09-04T03:17:16.906Z,97.0
2018-09-04T03:18:17.189Z,97.0
2018-09-04T03:19:16.464Z,97.1
2018-09-04T03:20:16.749Z,97.2
2018-09-04T03:21:16.788Z,97.2
2018-09-04T03:22:17.058Z,97.2
2018-09-04T03:23:16.542Z,97.2
2018-09-04T03:24:16.898Z,97.2
2018-09-04T03:25:17.167Z,97.2
2018-09-04T03:26:16.434Z,97.2
2018-09-04T03:27:16.700Z,97.2
2018-09-04T03:28:16.967Z,97.2
2018-09-04T03:29:17.245Z,97.2
2018-09-04T03:30:16.550Z,97.2
2018-09-04T03:31:16.564Z,97.2
2018-09-04T03:32:16.835Z,97.2
2018-09-04T03:33:17.105Z,97.2
2018-09-04T03:34:16.385Z,97.2
2018-09-04T03:35:16.658Z,97.2
2018-09-04T03:36:16.900Z,97.2
2018-09-04T03:37:17.171Z,97.2
2018-09-04T03:38:16.438Z,97.2
2018-09-04T03:39:16.714Z,97.2
2018-09-04T03:40:17.020Z,97.2
2018-09-04T03:41:17.034Z,97.2
2018-09-04T03:42:16.378Z,97.2
2018-09-04T03:43:16.652Z,97.2
2018-09-04T03:44:17.050Z,97.2
2018-09-04T03:45:16.339Z,97.2
2018-09-04T03:46:16.642Z,97.2
2018-09-04T03:47:16.914Z,97.2
2018-09-04T03:48:17.191Z,97.2
2018-09-04T03:49:16.459Z,97.2
2018-09-04T03:50:16.728Z,97.2
2018-09-04T03:51:16.769Z,97.2
2018-09-04T03:52:17.258Z,97.2
2018-09-04T03:53:16.590Z,97.2
2018-09-04T03:54:16.865Z,97.2
2018-09-04T03:55:17.133Z,97.2
2018-09-04T03:56:16.397Z,97.2
2018-09-04T03:57:16.676Z,97.2
2018-09-04T03:58:16.945Z,97.2
2018-09-04T03:59:17.213Z,97.2
2018-09-04T04:00:16.499Z,97.2
2018-09-04T04:01:16.566Z,97.3
2018-09-04T04:02:16.840Z,97.3
2018-09-04T04:03:17.110Z,97.3
2018-09-04T04:04:16.377Z,97.3
2018-09-04T04:05:16.621Z,97.3
2018-09-04T04:06:16.893Z,97.3
2018-09-04T04:07:17.167Z,97.3
2018-09-04T04:08:16.423Z,97.3
2018-09-04T04:09:16.691Z,97.3
2018-09-04T04:10:16.970Z,97.3
2018-09-04T04:11:17.008Z,97.3
2018-09-04T04:12:16.276Z,97.3
2018-09-04T04:13:16.546Z,97.3
2018-09-04T04:14:16.804Z,97.3
2018-09-04T04:15:17.082Z,97.3
2018-09-04T04:16:16.350Z,97.4
2018-09-04T04:17:16.626Z,97.4
2018-09-04T04:18:16.890Z,97.4
2018-09-04T04:19:17.165Z,97.5
2018-09-04T04:20:16.452Z,97.5
2018-09-04T04:21:16.480Z,97.4
2018-09-04T04:22:16.759Z,97.5
2018-09-04T04:23:17.026Z,97.4
2018-09-04T04:24:16.305Z,97.4
2018-09-04T04:25:16.592Z,97.5
2018-09-04T04:26:16.874Z,97.4
2018-09-04T04:27:17.201Z,97.4
2018-09-04T04:28:16.482Z,97.5
2018-09-04T04:29:16.756Z,97.5
2018-09-04T04:30:17.051Z,97.5
2018-09-04T04:31:17.081Z,97.5
2018-09-04T04:32:16.351Z,97.5
2018-09-04T04:33:16.650Z,97.5
2018-09-04T04:34:16.911Z,97.5
2018-09-04T04:35:17.202Z,97.5
2018-09-04T04:36:16.470Z,97.5
2018-09-04T04:37:16.740Z,97.5
2018-09-04T04:38:17.014Z,97.5
2018-09-04T04:39:16.305Z,97.5
2018-09-04T04:40:16.621Z,97.5
2018-09-04T04:41:16.641Z,97.5
2018-09-04T04:42:16.916Z,97.5
2018-09-04T04:43:17.203Z,97.5
2018-09-04T04:44:16.477Z,97.4
2018-09-04T04:45:16.734Z,97.4
2018-09-04T04:46:17.004Z,97.4
2018-09-04T04:47:16.285Z,97.3
2018-09-04T04:48:16.792Z,97.3
2018-09-04T04:49:17.086Z,97.3
2018-09-04T04:50:16.386Z,97.3
2018-09-04T04:51:16.408Z,97.2
2018-09-04T04:52:16.684Z,97.2
2018-09-04T04:53:16.955Z,97.3
2018-09-04T04:54:17.213Z,97.2
2018-09-04T04:55:16.483Z,97.2
2018-09-04T04:56:16.756Z,97.2
2018-09-04T04:57:17.019Z,97.2
2018-09-04T04:58:16.277Z,97.3
2018-09-04T04:59:16.557Z,97.3
2018-09-04T05:00:16.934Z,97.2
2018-09-04T05:01:16.887Z,97.2
2018-09-04T05:02:17.180Z,97.2
2018-09-04T05:03:16.450Z,97.2
2018-09-04T05:04:16.793Z,97.1
2018-09-04T05:05:17.077Z,97.1
2018-09-04T05:06:16.348Z,97.0
2018-09-04T05:07:16.625Z,97.0
2018-09-04T05:08:16.904Z,97.0
2018-09-04T05:09:17.184Z,97.0
2018-09-04T05:10:16.465Z,97.0
2018-09-04T05:11:16.813Z,96.9
2018-09-04T05:12:17.092Z,96.8
2018-09-04T05:13:16.357Z,96.8
2018-09-04T05:14:16.630Z,96.8
2018-09-04T05:15:16.898Z,96.8
2018-09-04T05:16:17.178Z,96.8
2018-09-04T05:17:16.453Z,96.8
2018-09-04T05:18:16.713Z,96.9
2018-09-04T05:19:16.994Z,96.9
2018-09-04T05:20:16.266Z,96.8
2018-09-04T05:21:16.320Z,96.8
2018-09-04T05:22:16.592Z,96.8
2018-09-04T05:23:16.865Z,96.8
2018-09-04T05:24:17.142Z,96.8
2018-09-04T05:25:16.412Z,96.8
2018-09-04T05:26:16.676Z,96.8
2018-09-04T05:27:16.944Z,96.8
2018-09-04T05:28:17.204Z,96.8
2018-09-04T05:29:16.576Z,96.7
2018-09-04T05:30:16.871Z,96.7
2018-09-04T05:31:16.914Z,96.7
2018-09-04T05:32:17.193Z,96.7
2018-09-04T05:33:16.467Z,96.7
2018-09-04T05:34:16.733Z,96.7
2018-09-04T05:35:17.023Z,96.7
2018-09-04T05:36:16.309Z,96.7
2018-09-04T05:37:16.591Z,96.6
2018-09-04T05:38:16.870Z,96.6
2018-09-04T05:39:17.133Z,96.5
2018-09-04T05:40:16.418Z,96.5
2018-09-04T05:41:16.450Z,96.5
2018-09-04T05:42:16.716Z,96.5
2018-09-04T05:43:16.985Z,96.5
2018-09-04T05:44:17.260Z,96.4
2018-09-04T05:45:16.543Z,96.4
2018-09-04T05:46:16.819Z,96.3
2018-09-04T05:47:17.378Z,96.4
2018-09-04T05:48:16.640Z,96.4
2018-09-04T05:49:16.906Z,96.5
2018-09-04T05:50:17.191Z,96.5
2018-09-04T05:51:17.241Z,96.5
2018-09-04T05:52:16.533Z,96.5
2018-09-04T05:53:16.822Z,96.4
2018-09-04T05:54:17.107Z,96.4
2018-09-04T05:55:16.550Z,96.3
2018-09-04T05:56:16.847Z,96.4
2018-09-04T05:57:17.115Z,96.4
2018-09-04T05:58:16.388Z,96.3
2018-09-04T05:59:16.659Z,96.3
2018-09-04T06:00:16.941Z,96.3
2018-09-04T06:01:16.994Z,96.2
2018-09-04T06:02:16.262Z,96.2
2018-09-04T06:03:16.557Z,96.2
2018-09-04T06:04:16.833Z,96.1
2018-09-04T06:05:17.101Z,96.1
2018-09-04T06:06:16.368Z,96.0
2018-09-04T06:07:16.635Z,96.0
2018-09-04T06:08:16.903Z,95.9
2018-09-04T06:09:17.176Z,95.9
2018-09-04T06:10:16.469Z,96.0
2018-09-04T06:11:16.516Z,95.9
2018-09-04T06:12:16.797Z,95.8
2018-09-04T06:13:17.080Z,95.8
2018-09-04T06:14:16.354Z,95.7
2018-09-04T06:15:16.626Z,95.8
2018-09-04T06:16:16.897Z,95.8
2018-09-04T06:17:17.167Z,95.7
2018-09-04T06:18:16.447Z,95.8
2018-09-04T06:19:16.717Z,95.8
2018-09-04T06:20:16.993Z,95.8
2018-09-04T06:21:17.049Z,95.8
2018-09-04T06:22:16.317Z,95.8
2018-09-04T06:23:16.593Z,95.8
2018-09-04T06:24:16.876Z,95.7
2018-09-04T06:25:17.159Z,95.7
2018-09-04T06:26:16.441Z,95.7
2018-09-04T06:27:16.720Z,95.7
2018-09-04T06:28:16.992Z,95.7
2018-09-04T06:29:16.262Z,95.7
2018-09-04T06:30:16.552Z,95.7
2018-09-04T06:31:16.601Z,95.7
2018-09-04T06:32:16.878Z,95.7
2018-09-04T06:33:17.503Z,95.6
2018-09-04T06:34:16.808Z,95.5
2018-09-04T06:35:17.090Z,95.5
2018-09-04T06:36:16.375Z,95.5
2018-09-04T06:37:16.650Z,95.5
2018-09-04T06:38:16.920Z,95.5
2018-09-04T06:39:17.310Z,95.5
2018-09-04T06:40:16.578Z,95.5
2018-09-04T06:41:16.629Z,95.5
2018-09-04T06:42:16.898Z,95.5
2018-09-04T06:43:17.162Z,95.5
2018-09-04T06:44:16.426Z,95.5
2018-09-04T06:45:16.702Z,95.5
2018-09-04T06:46:16.977Z,95.5
2018-09-04T06:47:17.240Z,95.5
2018-09-04T06:48:16.514Z,95.4
2018-09-04T06:49:16.800Z,95.3
2018-09-04T06:50:17.071Z,95.4
2018-09-04T06:51:17.118Z,95.4
2018-09-04T06:52:16.392Z,95.3
2018-09-04T06:53:16.656Z,95.3
2018-09-04T06:54:16.928Z,95.4
2018-09-04T06:55:17.199Z,95.3
2018-09-04T06:56:16.458Z,95.3
2018-09-04T06:57:16.731Z,95.4
2018-09-04T06:58:16.993Z,95.3
2018-09-04T06:59:16.268Z,95.4
2018-09-04T07:00:16.574Z,95.5
2018-09-04T07:01:16.606Z,95.5
2018-09-04T07:02:16.872Z,95.5
2018-09-04T07:03:17.153Z,95.5
2018-09-04T07:04:16.427Z,95.5
2018-09-04T07:05:16.694Z,95.6
2018-09-04T07:06:16.963Z,95.5
2018-09-04T07:07:17.236Z,95.5
2018-09-04T07:08:16.505Z,95.5
2018-09-04T07:09:16.789Z,95.5
2018-09-04T07:10:17.062Z,95.5
2018-09-04T07:11:17.115Z,95.5
2018-09-04T07:12:16.391Z,95.5
2018-09-04T07:13:16.663Z,95.5
2018-09-04T07:14:16.939Z,95.5
2018-09-04T07:15:17.214Z,95.5
2018-09-04T07:16:16.484Z,95.5
2018-09-04T07:17:16.761Z,95.5
2018-09-04T07:18:17.041Z,95.5
2018-09-04T07:19:16.329Z,95.5
2018-09-04T07:20:16.609Z,95.7
2018-09-04T07:21:16.670Z,95.8
2018-09-04T07:22:16.939Z,95.8
2018-09-04T07:23:17.217Z,95.8
2018-09-04T07:24:16.691Z,96.0
2018-09-04T07:25:17.012Z,95.9
2018-09-04T07:26:16.280Z,95.6
2018-09-04T07:27:16.546Z,95.5
2018-09-04T07:28:16.828Z,95.3
2018-09-04T07:29:17.122Z,95.3
2018-09-04T07:30:16.406Z,95.3
2018-09-04T07:31:16.453Z,95.4
2018-09-04T07:32:16.723Z,95.5
2018-09-04T07:33:16.991Z,95.4
2018-09-04T07:34:16.253Z,95.5
2018-09-04T07:35:16.538Z,95.5
2018-09-04T07:36:16.922Z,95.5
2018-09-04T07:37:17.197Z,95.6
2018-09-04T07:38:16.462Z,95.5
2018-09-04T07:39:16.732Z,95.7
2018-09-04T07:40:17.016Z,95.7
2018-09-04T07:41:17.043Z,95.7
2018-09-04T07:42:16.306Z,95.7
2018-09-04T07:43:16.580Z,95.7
2018-09-04T07:44:16.847Z,95.7
2018-09-04T07:45:17.129Z,95.7
2018-09-04T07:46:16.404Z,95.5
2018-09-04T07:47:16.663Z,95.5
2018-09-04T07:48:16.933Z,95.5
2018-09-04T07:49:17.204Z,95.7
2018-09-04T07:50:16.501Z,95.6
2018-09-04T07:51:16.512Z,95.2
2018-09-04T07:52:16.785Z,95.2
2018-09-04T07:53:17.056Z,95.3
2018-09-04T07:54:16.327Z,95.5
2018-09-04T07:55:16.590Z,95.5
2018-09-04T07:56:16.857Z,95.4
2018-09-04T07:57:17.143Z,95.3
2018-09-04T07:58:16.412Z,95.3
2018-09-04T07:59:16.688Z,95.2
2018-09-04T08:00:16.980Z,94.9
2018-09-04T08:01:16.987Z,95.0
2018-09-04T08:02:16.305Z,94.8
2018-09-04T08:03:16.583Z,94.8
2018-09-04T08:04:16.858Z,94.7
2018-09-04T08:05:17.145Z,94.7
2018-09-04T08:06:16.407Z,94.5
2018-09-04T08:07:16.677Z,94.6
2018-09-04T08:08:16.939Z,94.6
2018-09-04T08:09:17.205Z,94.5
2018-09-04T08:10:16.710Z,94.2
2018-09-04T08:11:16.534Z,94.1
2018-09-04T08:12:16.812Z,94.0
2018-09-04T08:13:17.087Z,94.2
2018-09-04T08:14:16.358Z,94.0
2018-09-04T08:15:16.626Z,93.8
2018-09-04T08:16:16.979Z,93.8
2018-09-04T08:17:17.253Z,93.6
2018-09-04T08:18:16.526Z,93.4
2018-09-04T08:19:16.803Z,93.4
2018-09-04T08:20:17.185Z,93.2
2018-09-04T08:21:17.117Z,93.0
2018-09-04T08:22:16.388Z,93.0
2018-09-04T08:23:16.661Z,92.9
2018-09-04T08:24:16.932Z,93.0
2018-09-04T08:25:17.208Z,92.8
2018-09-04T08:26:16.619Z,92.7
2018-09-04T08:27:16.939Z,92.7
2018-09-04T08:28:17.216Z,92.5
2018-09-04T08:29:16.489Z,92.5
2018-09-04T08:30:16.783Z,92.4
2018-09-04T08:31:16.820Z,92.4
2018-09-04T08:32:17.097Z,92.4
2018-09-04T08:33:16.572Z,92.2
2018-09-04T08:34:16.911Z,91.9
2018-09-04T08:35:17.193Z,91.7
2018-09-04T08:36:16.467Z,91.2
2018-09-04T08:37:16.741Z,91.3
2018-09-04T08:38:17.002Z,91.4
2018-09-04T08:39:16.270Z,91.5
2018-09-04T08:40:16.543Z,91.0
2018-09-04T08:41:16.616Z,91.3
2018-09-04T08:42:16.879Z,91.5
2018-09-04T08:43:17.152Z,91.2
2018-09-04T08:44:16.432Z,91.2
2018-09-04T08:45:16.702Z,90.9
2018-09-04T08:46:16.973Z,90.7
2018-09-04T08:47:17.480Z,90.9
2018-09-04T08:48:16.838Z,91.3
2018-09-04T08:49:17.120Z,91.3
2018-09-04T08:50:16.408Z,91.3
2018-09-04T08:51:16.455Z,91.3
2018-09-04T08:52:16.728Z,91.2
2018-09-04T08:53:17.060Z,90.2
2018-09-04T08:54:16.338Z,90.2
2018-09-04T08:55:16.679Z,90.2
2018-09-04T08:56:16.957Z,90.2
2018-09-04T08:57:17.241Z,90.3
2018-09-04T08:58:16.512Z,90.6
2018-09-04T08:59:16.785Z,90.3
2018-09-04T09:00:17.067Z,90.9
2018-09-04T09:01:17.128Z,90.3
2018-09-04T09:02:16.399Z,90.3
2018-09-04T09:03:16.660Z,90.5
2018-09-04T09:04:16.967Z,90.1
2018-09-04T09:05:17.242Z,89.8
2018-09-04T09:06:16.570Z,90.0
2018-09-04T09:07:16.830Z,89.9
2018-09-04T09:08:17.106Z,90.2
2018-09-04T09:09:16.382Z,90.0
2018-09-04T09:10:16.672Z,90.1
2018-09-04T09:11:16.705Z,89.8
2018-09-04T09:12:16.969Z,89.9
2018-09-04T09:13:17.266Z,90.0
2018-09-04T09:14:16.566Z,89.7
2018-09-04T09:15:16.847Z,89.5
2018-09-04T09:16:17.118Z,89.5
2018-09-04T09:17:16.385Z,89.7
2018-09-04T09:18:16.651Z,89.7
2018-09-04T09:19:16.924Z,90.2
2018-09-04T09:20:17.203Z,90.0
2018-09-04T09:21:17.225Z,89.6
2018-09-04T09:22:16.488Z,89.5
2018-09-04T09:23:16.764Z,89.1
2018-09-04T09:24:17.035Z,89.0
2018-09-04T09:25:16.303Z,88.8
2018-09-04T09:26:16.570Z,89.1
2018-09-04T09:27:16.838Z,89.1
2018-09-04T09:28:17.089Z,89.0
2018-09-04T09:29:16.360Z,88.6
2018-09-04T09:30:16.704Z,87.9
2018-09-04T09:31:16.670Z,87.7
2018-09-04T09:32:16.936Z,87.2
2018-09-04T09:33:17.197Z,87.0
2018-09-04T09:34:16.468Z,86.4
2018-09-04T09:35:16.913Z,87.5
2018-09-04T09:36:16.265Z,86.1
2018-09-04T09:37:16.542Z,85.8
2018-09-04T09:38:16.812Z,85.2
2018-09-04T09:39:17.083Z,84.7
2018-09-04T09:40:16.364Z,84.0
2018-09-04T09:41:16.420Z,85.2
2018-09-04T09:42:16.693Z,83.4
2018-09-04T09:43:16.970Z,83.1
2018-09-04T09:44:17.253Z,82.7
2018-09-04T09:45:16.533Z,84.2
2018-09-04T09:46:16.795Z,82.7
2018-09-04T09:47:17.068Z,81.9
2018-09-04T09:48:16.344Z,82.0
2018-09-04T09:49:16.610Z,82.0
2018-09-04T09:50:16.879Z,81.9
2018-09-04T09:51:16.939Z,81.7
2018-09-04T09:52:17.209Z,80.8
2018-09-04T09:53:16.921Z,79.9
2018-09-04T09:54:16.285Z,79.2
2018-09-04T09:55:16.557Z,79.0
2018-09-04T09:56:17.023Z,79.5
2018-09-04T09:57:16.390Z,78.3
2018-09-04T09:58:16.690Z,78.8
2018-09-04T09:59:16.972Z,77.8
2018-09-04T10:00:17.392Z,76.7
2018-09-04T10:01:16.314Z,75.4
2018-09-04T10:02:16.590Z,75.2
2018-09-04T10:03:16.861Z,73.7
2018-09-04T10:04:17.464Z,74.9
2018-09-04T10:05:16.791Z,75.5
2018-09-04T10:06:17.074Z,74.1
2018-09-04T10:07:16.343Z,74.5
2018-09-04T10:08:16.735Z,74.5
2018-09-04T10:09:17.007Z,73.8
2018-09-04T10:10:16.332Z,73.9
2018-09-04T10:11:16.486Z,74.2
2018-09-04T10:12:16.819Z,73.8
2018-09-04T10:13:17.085Z,74.3
2018-09-04T10:14:17.008Z,74.8
2018-09-04T10:15:16.316Z,74.5
2018-09-04T10:16:16.580Z,74.2
2018-09-04T10:17:16.846Z,74.2
2018-09-04T10:18:17.117Z,74.5
2018-09-04T10:19:16.381Z,73.3
2018-09-04T10:20:16.661Z,73.7
2018-09-04T10:21:16.821Z,74.2
2018-09-04T10:22:17.100Z,74.3
2018-09-04T10:23:16.364Z,75.8
2018-09-04T10:24:16.644Z,75.8
2018-09-04T10:25:16.912Z,75.0
2018-09-04T10:26:17.214Z,74.7
2018-09-04T10:27:16.504Z,74.5
2018-09-04T10:28:16.779Z,72.8
2018-09-04T10:29:17.057Z,72.3
2018-09-04T10:30:16.332Z,72.6
2018-09-04T10:31:16.390Z,71.4
2018-09-04T10:32:16.669Z,72.2
2018-09-04T10:33:16.948Z,72.1
2018-09-04T10:34:17.225Z,70.6
2018-09-04T10:35:16.496Z,70.2
2018-09-04T10:36:16.929Z,70.2
2018-09-04T10:37:16.255Z,69.7
2018-09-04T10:38:16.526Z,70.6
2018-09-04T10:39:16.789Z,69.9
2018-09-04T10:40:17.082Z,70.3
2018-09-04T10:41:17.126Z,67.2
2018-09-04T10:42:16.402Z,66.7
2018-09-04T10:43:16.669Z,66.2
2018-09-04T10:44:17.118Z,67.2
2018-09-04T10:45:16.403Z,67.6
2018-09-04T10:46:16.672Z,68.3
2018-09-04T10:47:16.986Z,68.3
2018-09-04T10:48:17.256Z,68.7
2018-09-04T10:49:16.524Z,68.6
2018-09-04T10:50:16.811Z,68.1
2018-09-04T10:51:16.842Z,67.4
2018-09-04T10:52:17.120Z,67.4
2018-09-04T10:53:16.385Z,68.2
2018-09-04T10:54:16.648Z,69.0
2018-09-04T10:55:16.924Z,68.6
2018-09-04T10:56:17.189Z,67.7
2018-09-04T10:57:16.470Z,68.3
2018-09-04T10:58:16.750Z,68.7
2018-09-04T10:59:17.029Z,68.2
2018-09-04T11:00:16.326Z,67.7
2018-09-04T11:01:16.329Z,69.2
2018-09-04T11:02:16.730Z,70.5
2018-09-04T11:03:17.073Z,69.4
2018-09-04T11:04:16.351Z,69.3
2018-09-04T11:05:16.623Z,69.0
2018-09-04T11:06:16.890Z,67.9
2018-09-04T11:07:17.154Z,67.0
2018-09-04T11:08:16.426Z,67.6
2018-09-04T11:09:16.959Z,67.2
2018-09-04T11:10:16.276Z,67.8
2018-09-04T11:11:16.294Z,67.5
2018-09-04T11:12:16.563Z,68.0
2018-09-04T11:13:16.838Z,67.8
2018-09-04T11:14:17.101Z,68.5
2018-09-04T11:15:16.390Z,65.2
2018-09-04T11:16:16.663Z,66.3
2018-09-04T11:17:16.941Z,67.5
2018-09-04T11:18:17.213Z,65.1
2018-09-04T11:19:16.490Z,65.0
2018-09-04T11:20:16.769Z,64.0
2018-09-04T11:21:16.804Z,63.8
2018-09-04T11:22:17.096Z,63.4
2018-09-04T11:23:16.382Z,63.5
2018-09-04T11:24:16.645Z,63.8
2018-09-04T11:25:16.912Z,63.2
2018-09-04T11:26:17.177Z,64.0
2018-09-04T11:27:16.442Z,64.3
2018-09-04T11:28:16.703Z,66.0
2018-09-04T11:29:16.966Z,65.6
2018-09-04T11:30:17.248Z,64.3
2018-09-04T11:31:16.328Z,64.5
2018-09-04T11:32:16.607Z,64.0
2018-09-04T11:33:16.883Z,64.5
2018-09-04T11:34:17.159Z,64.0
2018-09-04T11:35:16.448Z,62.6
2018-09-04T11:36:16.721Z,62.3
2018-09-04T11:37:16.994Z,62.7
2018-09-04T11:38:16.264Z,62.5
2018-09-04T11:39:16.536Z,63.2
2018-09-04T11:40:16.834Z,62.5
2018-09-04T11:41:16.862Z,61.0
2018-09-04T11:42:17.131Z,63.0
2018-09-04T11:43:16.394Z,63.5
2018-09-04T11:44:16.671Z,62.2
2018-09-04T11:45:16.954Z,61.8
2018-09-04T11:46:17.237Z,61.5
2018-09-04T11:47:16.510Z,63.4
2018-09-04T11:48:16.793Z,63.9
2018-09-04T11:49:17.059Z,64.2
2018-09-04T11:50:16.362Z,65.0
2018-09-04T11:51:16.394Z,64.4
2018-09-04T11:52:17.035Z,66.3
2018-09-04T11:53:16.368Z,66.6
2018-09-04T11:54:16.634Z,66.8
2018-09-04T11:55:16.903Z,66.3
2018-09-04T11:56:17.174Z,65.1
2018-09-04T11:57:16.441Z,65.2
2018-09-04T11:58:16.706Z,66.2
2018-09-04T11:59:16.978Z,66.8
2018-09-04T12:00:17.276Z,66.2
2018-09-04T12:01:16.337Z,65.8
2018-09-04T12:02:16.892Z,65.2
2018-09-04T12:03:17.185Z,65.9
2018-09-04T12:04:16.458Z,66.8
2018-09-04T12:05:16.724Z,67.3
2018-09-04T12:06:16.996Z,66.5
2018-09-04T12:07:16.272Z,66.8
2018-09-04T12:08:16.548Z,68.0
2018-09-04T12:09:16.816Z,67.8
2018-09-04T12:10:17.105Z,69.0
2018-09-04T12:11:17.150Z,68.9
2018-09-04T12:12:16.538Z,69.2
2018-09-04T12:13:16.972Z,68.1
2018-09-04T12:14:16.322Z,67.1
2018-09-04T12:15:16.604Z,65.8
2018-09-04T12:16:16.874Z,66.5
2018-09-04T12:17:17.159Z,67.2
2018-09-04T12:18:16.445Z,66.9
2018-09-04T12:19:16.999Z,66.4
2018-09-04T12:20:16.324Z,67.5
2018-09-04T12:21:16.499Z,68.1
2018-09-04T12:22:16.842Z,68.2
2018-09-04T12:23:17.108Z,66.8
2018-09-04T12:24:16.387Z,66.0
2018-09-04T12:25:16.660Z,65.7
2018-09-04T12:26:16.926Z,66.0
2018-09-04T12:27:17.494Z,65.5
2018-09-04T12:28:16.831Z,64.8
2018-09-04T12:29:17.108Z,66.8
2018-09-04T12:30:16.385Z,65.8
2018-09-04T12:31:16.440Z,64.0
2018-09-04T12:32:16.715Z,65.3
2018-09-04T12:33:16.979Z,64.5
2018-09-04T12:34:17.249Z,64.0
2018-09-04T12:35:16.522Z,64.3
2018-09-04T12:36:16.792Z,63.7
2018-09-04T12:37:17.075Z,63.1
2018-09-04T12:38:16.344Z,63.7
2018-09-04T12:39:16.612Z,63.8
2018-09-04T12:40:16.905Z,62.9
2018-09-04T12:41:16.942Z,62.9
2018-09-04T12:42:17.218Z,63.7
2018-09-04T12:43:16.483Z,63.3
2018-09-04T12:44:16.823Z,62.6
2018-09-04T12:45:17.152Z,61.7
2018-09-04T12:46:16.415Z,62.9
2018-09-04T12:47:16.687Z,63.0
2018-09-04T12:48:17.255Z,62.6
2018-09-04T12:49:16.763Z,62.4
2018-09-04T12:50:17.039Z,62.8
2018-09-04T12:51:17.081Z,62.7
2018-09-04T12:52:16.570Z,62.4
2018-09-04T12:53:16.916Z,62.4
2018-09-04T12:54:17.180Z,63.0
2018-09-04T12:55:16.454Z,63.0
2018-09-04T12:56:16.725Z,62.4
2018-09-04T12:57:17.000Z,62.1
2018-09-04T12:58:16.268Z,61.4
2018-09-04T12:59:16.542Z,60.4
2018-09-04T13:00:16.829Z,60.3
2018-09-04T13:01:16.855Z,60.7
2018-09-04T13:02:17.124Z,59.8
2018-09-04T13:03:16.397Z,59.4
2018-09-04T13:04:16.673Z,60.4
2018-09-04T13:05:16.940Z,60.0
2018-09-04T13:06:17.222Z,59.4
2018-09-04T13:07:16.493Z,60.8
2018-09-04T13:08:16.760Z,60.3
2018-09-04T13:09:17.031Z,61.3
2018-09-04T13:10:16.313Z,60.4
2018-09-04T13:11:16.355Z,60.8
2018-09-04T13:12:16.640Z,61.0
2018-09-04T13:13:16.912Z,60.3
2018-09-04T13:14:17.192Z,59.8
2018-09-04T13:15:16.468Z,59.8
2018-09-04T13:16:16.735Z,60.3
2018-09-04T13:17:16.999Z,60.3
2018-09-04T13:18:16.268Z,59.5